createdAt,value
2024-01-14T00:00:58.316Z,2.33
2024-01-14T00:03:25.203Z,2.38
2024-01-14T00:05:51.726Z,2.41
2024-01-14T00:08:18.407Z,2.43
2024-01-14T00:10:44.807Z,2.41
2024-01-14T00:13:11.593Z,2.41
2024-01-14T00:15:38.335Z,2.44
2024-01-14T00:18:05.181Z,2.46
2024-01-14T00:20:31.655Z,2.43
2024-01-14T00:22:58.126Z,2.33
2024-01-14T00:25:24.745Z,2.35
2024-01-14T00:27:51.210Z,2.43
2024-01-14T00:30:17.842Z,2.38
2024-01-14T00:32:44.377Z,2.45
2024-01-14T00:35:11.074Z,2.40
2024-01-14T00:37:37.576Z,2.37
2024-01-14T00:40:07.992Z,2.39
2024-01-14T00:42:34.560Z,2.37
2024-01-14T00:45:01.944Z,2.37
2024-01-14T00:47:31.393Z,2.44
2024-01-14T00:49:58.792Z,2.45
2024-01-14T00:52:25.228Z,2.48
2024-01-14T00:54:51.624Z,2.46
2024-01-14T00:57:19.044Z,2.44
2024-01-14T00:59:45.760Z,2.52
2024-01-14T01:02:13.275Z,2.47
2024-01-14T01:04:40.096Z,2.56
2024-01-14T01:07:07.612Z,2.54
2024-01-14T01:09:35.007Z,2.53
2024-01-14T01:12:01.895Z,2.53
2024-01-14T01:14:28.306Z,2.59
2024-01-14T01:16:54.822Z,2.54
2024-01-14T01:19:21.379Z,2.65
2024-01-14T01:21:48.682Z,2.62
2024-01-14T01:24:16.145Z,2.64
2024-01-14T01:26:42.599Z,2.62
2024-01-14T01:29:09.093Z,2.56
2024-01-14T01:31:45.439Z,2.57
2024-01-14T01:34:15.109Z,2.56
2024-01-14T01:36:41.712Z,2.58
2024-01-14T01:39:08.188Z,2.57
2024-01-14T01:41:34.619Z,2.54
2024-01-14T01:44:01.059Z,2.53
2024-01-14T01:46:27.472Z,2.54
2024-01-14T01:48:54.262Z,2.55
2024-01-14T01:51:21.143Z,2.58
2024-01-14T01:53:47.684Z,2.59
2024-01-14T01:56:14.685Z,2.60
2024-01-14T01:58:41.770Z,2.59
2024-01-14T02:01:08.539Z,2.58
2024-01-14T02:03:35.918Z,2.55
2024-01-14T02:06:04.050Z,2.56
2024-01-14T02:08:30.612Z,2.54
2024-01-14T02:10:57.113Z,2.58
2024-01-14T02:13:23.529Z,2.58
2024-01-14T02:15:49.996Z,2.58
2024-01-14T02:18:17.007Z,2.58
2024-01-14T02:20:43.545Z,2.61
2024-01-14T02:23:13.441Z,2.62
2024-01-14T02:25:39.841Z,2.56
2024-01-14T02:28:06.551Z,2.55
2024-01-14T02:30:34.760Z,2.57
2024-01-14T02:33:02.636Z,2.56
2024-01-14T02:35:29.338Z,2.55
2024-01-14T02:37:56.692Z,2.51
2024-01-14T02:40:23.153Z,2.51
2024-01-14T02:42:49.558Z,2.57
2024-01-14T02:45:16.147Z,2.49
2024-01-14T02:47:42.765Z,2.45
2024-01-14T02:50:09.645Z,2.55
2024-01-14T02:52:36.053Z,2.52
2024-01-14T02:55:02.825Z,2.54
2024-01-14T02:57:29.489Z,2.43
2024-01-14T02:59:55.974Z,2.49
2024-01-14T03:02:22.373Z,2.40
2024-01-14T03:04:49.068Z,2.45
2024-01-14T03:07:15.525Z,2.39
2024-01-14T03:09:42.208Z,2.41
2024-01-14T03:12:09.271Z,2.44
2024-01-14T03:14:35.832Z,2.46
2024-01-14T03:17:02.561Z,2.46
2024-01-14T03:19:29.067Z,2.42
2024-01-14T03:21:55.590Z,2.43
2024-01-14T03:24:22.076Z,2.44
2024-01-14T03:26:48.758Z,2.44
2024-01-14T03:29:15.343Z,2.46
2024-01-14T03:31:41.827Z,2.46
2024-01-14T03:34:08.526Z,2.42
2024-01-14T03:36:35.187Z,2.42
2024-01-14T03:39:04.873Z,2.46
2024-01-14T03:41:34.229Z,2.44
2024-01-14T03:44:01.196Z,2.42
2024-01-14T03:46:27.740Z,2.43
2024-01-14T03:48:54.316Z,2.38
2024-01-14T03:51:20.873Z,2.37
2024-01-14T03:53:48.256Z,2.34
2024-01-14T03:56:14.924Z,2.32
2024-01-14T03:58:41.685Z,2.40
2024-01-14T04:01:15.980Z,2.38
2024-01-14T04:03:42.658Z,2.37
2024-01-14T04:06:09.768Z,2.32
2024-01-14T04:08:36.429Z,2.36
2024-01-14T04:11:03.445Z,2.26
2024-01-14T04:13:29.864Z,2.23
2024-01-14T04:15:59.843Z,2.25
2024-01-14T04:18:27.872Z,2.22
2024-01-14T04:20:54.326Z,2.23
2024-01-14T04:23:20.742Z,2.19
2024-01-14T04:25:47.148Z,2.17
2024-01-14T04:28:13.585Z,2.18
2024-01-14T04:30:40.020Z,2.21
2024-01-14T04:33:06.709Z,2.15
2024-01-14T04:35:33.278Z,2.16
2024-01-14T04:38:01.470Z,2.28
2024-01-14T04:40:28.357Z,2.20
2024-01-14T04:42:54.748Z,2.06
2024-01-14T04:45:21.162Z,2.08
2024-01-14T04:47:48.207Z,2.00
2024-01-14T04:50:14.944Z,2.00
2024-01-14T04:52:41.731Z,1.99
2024-01-14T04:55:08.316Z,2.04
2024-01-14T04:57:34.762Z,2.03
2024-01-14T05:00:01.224Z,2.09
2024-01-14T05:02:28.157Z,2.04
2024-01-14T05:04:54.578Z,1.99
2024-01-14T05:07:21.008Z,2.01
2024-01-14T05:09:47.433Z,1.93
2024-01-14T05:12:13.888Z,1.93
2024-01-14T05:14:40.460Z,1.98
2024-01-14T05:17:06.943Z,1.98
2024-01-14T05:19:33.669Z,1.94
2024-01-14T05:22:00.189Z,2.01
2024-01-14T05:24:27.157Z,1.90
2024-01-14T05:26:53.660Z,1.89
2024-01-14T05:29:20.081Z,1.95
2024-01-14T05:31:46.556Z,1.89
2024-01-14T05:34:13.080Z,1.94
2024-01-14T05:36:39.718Z,1.96
2024-01-14T05:39:06.203Z,2.02
2024-01-14T05:41:33.004Z,1.89
2024-01-14T05:43:59.474Z,1.97
2024-01-14T05:46:26.278Z,2.03
2024-01-14T05:48:52.846Z,1.99
2024-01-14T05:51:19.435Z,1.97
2024-01-14T05:53:46.911Z,1.97
2024-01-14T05:56:13.697Z,1.97
2024-01-14T05:58:42.843Z,2.04
2024-01-14T06:01:09.540Z,2.00
2024-01-14T06:03:36.200Z,1.94
2024-01-14T06:06:03.539Z,1.96
2024-01-14T06:08:30.503Z,1.97
2024-01-14T06:10:56.931Z,1.90
2024-01-14T06:13:23.607Z,1.99
2024-01-14T06:15:50.019Z,1.97
2024-01-14T06:18:16.737Z,1.91
2024-01-14T06:20:44.915Z,1.90
2024-01-14T06:23:12.223Z,1.81
2024-01-14T06:25:38.991Z,1.83
2024-01-14T06:28:07.882Z,1.90
2024-01-14T06:30:35.387Z,1.81
2024-01-14T06:33:04.640Z,1.87
2024-01-14T06:35:31.181Z,1.82
2024-01-14T06:37:57.581Z,1.85
2024-01-14T06:40:31.694Z,1.78
2024-01-14T06:43:02.960Z,1.74
2024-01-14T06:45:29.581Z,1.69
2024-01-14T06:47:56.363Z,1.70
2024-01-14T06:50:22.909Z,1.61
2024-01-14T06:52:49.354Z,1.67
2024-01-14T06:55:16.265Z,1.67
2024-01-14T06:57:42.812Z,1.68
2024-01-14T07:00:10.437Z,1.59
2024-01-14T07:02:37.350Z,1.80
2024-01-14T07:05:09.518Z,1.84
2024-01-14T07:07:36.057Z,1.75
2024-01-14T07:10:02.555Z,1.81
2024-01-14T07:12:29.011Z,1.72
2024-01-14T07:14:55.570Z,1.67
2024-01-14T07:17:22.207Z,1.74
2024-01-14T07:19:48.825Z,1.71
2024-01-14T07:22:15.568Z,1.69
2024-01-14T07:24:42.220Z,1.77
2024-01-14T07:27:08.830Z,1.76
2024-01-14T07:29:35.415Z,1.69
2024-01-14T07:32:05.844Z,1.69
2024-01-14T07:34:33.111Z,1.69
2024-01-14T07:36:59.631Z,1.61
2024-01-14T07:39:26.119Z,1.72
2024-01-14T07:41:52.714Z,1.76
2024-01-14T07:44:21.826Z,1.74
2024-01-14T07:46:48.226Z,1.76
2024-01-14T07:49:15.016Z,1.82
2024-01-14T07:51:41.715Z,1.75
2024-01-14T07:54:08.348Z,1.73
2024-01-14T07:56:34.938Z,1.75
2024-01-14T07:59:02.623Z,1.71
2024-01-14T08:01:31.170Z,1.72
2024-01-14T08:03:58.074Z,1.70
2024-01-14T08:06:25.514Z,1.71
2024-01-14T08:08:52.090Z,1.78
2024-01-14T08:11:18.640Z,1.67
2024-01-14T08:13:45.184Z,1.70
2024-01-14T08:16:12.433Z,1.66
2024-01-14T08:18:39.034Z,1.73
2024-01-14T08:21:10.286Z,1.83
2024-01-14T08:23:37.706Z,1.90
2024-01-14T08:26:04.510Z,1.94
2024-01-14T08:28:33.135Z,1.99
2024-01-14T08:30:59.812Z,2.05
2024-01-14T08:33:26.618Z,2.11
2024-01-14T08:35:55.330Z,2.20
2024-01-14T08:38:22.119Z,2.16
2024-01-14T08:40:48.636Z,2.08
2024-01-14T08:43:15.329Z,2.13
2024-01-14T08:45:42.318Z,2.20
2024-01-14T08:48:09.294Z,2.15
2024-01-14T08:50:36.122Z,2.18
2024-01-14T08:53:02.569Z,2.20
2024-01-14T08:55:29.978Z,2.22
2024-01-14T08:57:56.474Z,2.22
2024-01-14T09:00:23.093Z,2.16
2024-01-14T09:02:49.586Z,2.27
2024-01-14T09:05:16.649Z,2.26
2024-01-14T09:07:43.325Z,2.29
2024-01-14T09:10:10.227Z,2.27
2024-01-14T09:12:36.902Z,2.20
2024-01-14T09:15:03.690Z,2.20
2024-01-14T09:17:30.463Z,2.30
2024-01-14T09:19:56.965Z,2.31
2024-01-14T09:22:23.534Z,2.27
2024-01-14T09:24:50.099Z,2.17
2024-01-14T09:27:18.461Z,2.14
2024-01-14T09:29:45.055Z,2.07
2024-01-14T09:32:11.740Z,2.02
2024-01-14T09:34:38.311Z,1.97
2024-01-14T09:37:04.950Z,1.98
2024-01-14T09:39:31.502Z,1.92
2024-01-14T09:42:23.538Z,1.87
2024-01-14T09:44:57.909Z,1.93
2024-01-14T09:47:26.633Z,1.97
2024-01-14T09:49:54.987Z,1.94
2024-01-14T09:52:22.779Z,1.97
2024-01-14T09:54:49.249Z,2.06
2024-01-14T09:57:19.385Z,2.07
2024-01-14T09:59:48.978Z,2.15
2024-01-14T10:02:16.192Z,2.13
2024-01-14T10:04:43.899Z,2.14
2024-01-14T10:07:12.339Z,1.99
2024-01-14T10:09:43.973Z,2.02
2024-01-14T10:12:11.155Z,2.06
2024-01-14T10:14:38.774Z,1.93
2024-01-14T10:17:05.668Z,1.93
2024-01-14T10:19:32.556Z,1.91
2024-01-14T10:22:14.444Z,1.96
2024-01-14T10:24:52.595Z,1.94
2024-01-14T10:27:34.080Z,1.92
2024-01-14T10:30:12.616Z,1.84
2024-01-14T10:33:15.964Z,1.92
2024-01-14T10:35:29.254Z,1.85
2024-01-14T10:37:56.448Z,1.87
2024-01-14T10:40:23.175Z,1.69
2024-01-14T10:42:49.613Z,1.65
2024-01-14T10:45:16.392Z,1.72
2024-01-14T10:47:48.086Z,1.79
2024-01-14T10:50:18.454Z,1.67
2024-01-14T10:52:55.183Z,1.61
2024-01-14T10:55:38.734Z,1.51
2024-01-14T10:58:06.390Z,1.55
2024-01-14T11:00:36.804Z,1.53
2024-01-14T11:03:07.170Z,1.50
2024-01-14T11:05:34.917Z,1.58
2024-01-14T11:08:02.200Z,1.58
2024-01-14T11:10:29.888Z,1.55
2024-01-14T11:13:23.377Z,1.59
2024-01-14T11:16:11.014Z,1.63
2024-01-14T11:18:46.988Z,1.64
2024-01-14T11:21:44.711Z,1.70
2024-01-14T11:24:22.558Z,1.69
2024-01-14T11:26:49.319Z,1.72
2024-01-14T11:29:15.769Z,1.80
2024-01-14T11:32:04.213Z,1.90
2024-01-14T11:34:46.037Z,1.95
2024-01-14T11:37:31.752Z,1.95
2024-01-14T11:40:07.827Z,1.95
2024-01-14T11:42:35.979Z,2.04
2024-01-14T11:45:14.516Z,2.08
2024-01-14T11:47:47.172Z,2.03
2024-01-14T11:50:15.581Z,1.98
2024-01-14T11:52:44.927Z,1.96
2024-01-14T11:55:15.759Z,1.86
2024-01-14T11:57:42.762Z,1.82
2024-01-14T12:00:09.893Z,1.82
2024-01-14T12:02:36.647Z,1.78
2024-01-14T12:05:16.582Z,1.77
2024-01-14T12:07:44.083Z,1.72
2024-01-14T12:10:14.562Z,1.67
2024-01-14T12:12:42.905Z,1.70
2024-01-14T12:15:10.700Z,1.66
2024-01-14T12:17:37.360Z,1.74
2024-01-14T12:20:06.165Z,1.67
2024-01-14T12:22:32.682Z,1.65
2024-01-14T12:25:02.014Z,1.72
2024-01-14T12:27:28.562Z,1.62
2024-01-14T12:29:56.553Z,1.67
2024-01-14T12:32:23.266Z,1.68
2024-01-14T12:34:50.456Z,1.81
2024-01-14T12:37:17.518Z,1.79
2024-01-14T12:39:44.459Z,1.66
2024-01-14T12:42:13.014Z,1.60
2024-01-14T12:44:48.155Z,1.69
2024-01-14T12:47:14.794Z,1.70
2024-01-14T12:49:44.958Z,1.61
2024-01-14T12:52:11.999Z,1.64
2024-01-14T12:54:39.109Z,1.60
2024-01-14T12:57:16.727Z,1.65
2024-01-14T12:59:49.303Z,1.56
2024-01-14T13:02:15.820Z,1.56
2024-01-14T13:04:42.463Z,1.50
2024-01-14T13:07:12.878Z,1.53
2024-01-14T13:09:41.145Z,1.50
2024-01-14T13:12:08.153Z,1.50
2024-01-14T13:14:34.943Z,1.57
2024-01-14T13:17:03.531Z,1.50
2024-01-14T13:19:30.312Z,1.53
2024-01-14T13:21:56.988Z,1.50
2024-01-14T13:24:23.436Z,1.47
2024-01-14T13:26:49.946Z,1.44
2024-01-14T13:29:16.559Z,1.44
2024-01-14T13:31:43.783Z,1.43
2024-01-14T13:34:10.866Z,1.50
2024-01-14T13:36:37.759Z,1.54
2024-01-14T13:39:05.876Z,1.56
2024-01-14T13:41:32.907Z,1.58
2024-01-14T13:44:12.019Z,1.56
2024-01-14T13:46:44.900Z,1.58
2024-01-14T13:49:11.640Z,1.64
2024-01-14T13:51:39.544Z,1.58
2024-01-14T13:54:12.486Z,1.63
2024-01-14T13:56:41.958Z,1.53
2024-01-14T13:59:12.096Z,1.57
2024-01-14T14:01:39.401Z,1.58
2024-01-14T14:04:07.009Z,1.51
2024-01-14T14:06:37.147Z,1.52
2024-01-14T14:09:04.754Z,1.51
2024-01-14T14:11:31.250Z,1.49
2024-01-14T14:13:59.935Z,1.48
2024-01-14T14:16:35.218Z,1.37
2024-01-14T14:19:07.412Z,1.38
2024-01-14T14:21:42.495Z,1.27
2024-01-14T14:24:20.155Z,1.24
2024-01-14T14:26:46.866Z,1.22
2024-01-14T14:29:13.354Z,1.28
2024-01-14T14:31:48.209Z,1.15
2024-01-14T14:34:16.845Z,1.23
2024-01-14T14:36:44.307Z,1.22
2024-01-14T14:39:11.595Z,1.17
2024-01-14T14:41:38.230Z,1.11
2024-01-14T14:44:05.703Z,1.16
2024-01-14T14:46:32.579Z,1.05
2024-01-14T14:49:00.232Z,1.07
2024-01-14T14:51:33.789Z,0.96
2024-01-14T14:54:10.133Z,0.99
2024-01-14T14:56:37.265Z,0.96
2024-01-14T14:59:03.880Z,0.83
2024-01-14T15:01:37.948Z,0.91
2024-01-14T15:04:11.564Z,0.93
2024-01-14T15:06:39.781Z,0.87
2024-01-14T15:09:08.139Z,0.81
2024-01-14T15:11:38.358Z,0.72
2024-01-14T15:14:06.377Z,0.78
2024-01-14T15:16:32.842Z,0.84
2024-01-14T15:18:59.618Z,0.74
2024-01-14T15:21:26.350Z,0.86
2024-01-14T15:23:52.862Z,0.78
2024-01-14T15:26:19.292Z,0.68
2024-01-14T15:28:46.183Z,0.75
2024-01-14T15:31:13.813Z,0.78
2024-01-14T15:33:41.698Z,0.77
2024-01-14T15:36:09.612Z,0.76
2024-01-14T15:38:36.496Z,0.81
2024-01-14T15:41:07.056Z,0.73
2024-01-14T15:43:37.672Z,0.74
2024-01-14T15:46:04.510Z,0.81
2024-01-14T15:48:31.946Z,0.83
2024-01-14T15:51:04.596Z,0.79
2024-01-14T15:53:35.802Z,0.72
2024-01-14T15:56:06.271Z,0.70
2024-01-14T15:58:33.549Z,0.83
2024-01-14T16:01:08.158Z,0.77
2024-01-14T16:03:38.503Z,0.71
2024-01-14T16:06:06.362Z,0.78
2024-01-14T16:08:32.921Z,0.66
2024-01-14T16:11:05.091Z,0.70
2024-01-14T16:13:34.161Z,0.57
2024-01-14T16:16:01.271Z,0.59
2024-01-14T16:18:27.851Z,0.71
2024-01-14T16:21:02.786Z,0.81
2024-01-14T16:23:33.555Z,0.76
2024-01-14T16:26:00.451Z,0.69
2024-01-14T16:28:27.527Z,0.67
2024-01-14T16:31:05.070Z,0.69
2024-01-14T16:33:38.534Z,0.61
2024-01-14T16:36:05.734Z,0.62
2024-01-14T16:38:32.229Z,0.66
2024-01-14T16:41:03.705Z,0.61
2024-01-14T16:43:32.434Z,0.61
2024-01-14T16:45:58.985Z,0.65
2024-01-14T16:48:25.524Z,0.59
2024-01-14T16:51:02.468Z,0.61
2024-01-14T16:53:35.445Z,0.51
2024-01-14T16:56:02.921Z,0.59
2024-01-14T16:58:29.461Z,0.58
2024-01-14T17:01:07.587Z,0.52
2024-01-14T17:03:41.572Z,0.62
2024-01-14T17:06:09.874Z,0.56
2024-01-14T17:08:38.019Z,0.59
2024-01-14T17:11:08.906Z,0.51
2024-01-14T17:13:35.317Z,0.55
2024-01-14T17:16:10.080Z,0.57
2024-01-14T17:18:40.345Z,0.64
2024-01-14T17:21:08.129Z,0.69
2024-01-14T17:23:35.180Z,0.68
2024-01-14T17:26:07.539Z,0.71
2024-01-14T17:28:40.913Z,0.69
2024-01-14T17:31:18.184Z,0.71
2024-01-14T17:33:48.091Z,0.68
2024-01-14T17:36:16.206Z,0.63
2024-01-14T17:38:44.852Z,0.66
2024-01-14T17:41:11.897Z,0.68
2024-01-14T17:43:40.228Z,0.69
2024-01-14T17:46:09.540Z,0.65
2024-01-14T17:48:42.933Z,0.55
2024-01-14T17:51:11.515Z,0.66
2024-01-14T17:53:38.798Z,0.67
2024-01-14T17:56:05.761Z,0.61
2024-01-14T17:58:32.554Z,0.60
2024-01-14T18:01:03.210Z,0.65
2024-01-14T18:03:30.323Z,0.65
2024-01-14T18:05:57.036Z,0.71
2024-01-14T18:08:23.767Z,0.70
2024-01-14T18:10:50.481Z,0.70
2024-01-14T18:13:17.646Z,0.65
2024-01-14T18:15:45.743Z,0.68
2024-01-14T18:18:13.855Z,0.62
2024-01-14T18:20:41.658Z,0.62
2024-01-14T18:23:12.824Z,0.67
2024-01-14T18:25:42.619Z,0.62
2024-01-14T18:28:09.280Z,0.65
2024-01-14T18:30:36.110Z,0.66
2024-01-14T18:33:10.214Z,0.66
2024-01-14T18:35:40.878Z,0.67
2024-01-14T18:38:08.138Z,0.72
2024-01-14T18:40:34.820Z,0.60
2024-01-14T18:43:05.648Z,0.66
2024-01-14T18:45:38.054Z,0.68
2024-01-14T18:48:07.420Z,0.57
2024-01-14T18:50:34.943Z,0.59
2024-01-14T18:53:02.421Z,0.53
2024-01-14T18:55:29.056Z,0.51
2024-01-14T18:57:55.525Z,0.55
2024-01-14T19:00:21.956Z,0.59
2024-01-14T19:02:48.749Z,0.53
2024-01-14T19:05:15.992Z,0.51
2024-01-14T19:07:42.887Z,0.58
2024-01-14T19:10:10.192Z,0.56
2024-01-14T19:12:37.498Z,0.54
2024-01-14T19:15:05.521Z,0.57
2024-01-14T19:17:33.112Z,0.52
2024-01-14T19:20:00.846Z,0.55
2024-01-14T19:22:27.899Z,0.59
2024-01-14T19:24:55.321Z,0.59
2024-01-14T19:27:22.588Z,0.55
2024-01-14T19:29:49.415Z,0.55
2024-01-14T19:32:16.039Z,0.57
2024-01-14T19:34:45.446Z,0.48
2024-01-14T19:37:12.386Z,0.47
2024-01-14T19:39:42.904Z,0.43
2024-01-14T19:42:11.432Z,0.49
2024-01-14T19:44:37.987Z,0.54
2024-01-14T19:47:04.692Z,0.54
2024-01-14T19:49:31.497Z,0.40
2024-01-14T19:51:58.216Z,0.45
2024-01-14T19:54:25.989Z,0.44
2024-01-14T19:56:53.591Z,0.45
2024-01-14T19:59:21.606Z,0.44
2024-01-14T20:01:48.625Z,0.48
2024-01-14T20:04:15.525Z,0.54
2024-01-14T20:06:43.084Z,0.48
2024-01-14T20:09:10.551Z,0.47
2024-01-14T20:11:42.062Z,0.53
2024-01-14T20:14:08.696Z,0.52
2024-01-14T20:16:35.097Z,0.61
2024-01-14T20:19:02.220Z,0.54
2024-01-14T20:21:28.701Z,0.54
2024-01-14T20:23:55.196Z,0.58
2024-01-14T20:26:22.025Z,0.57
2024-01-14T20:28:49.160Z,0.57
2024-01-14T20:31:15.898Z,0.54
2024-01-14T20:33:42.639Z,0.54
2024-01-14T20:36:09.388Z,0.58
2024-01-14T20:38:35.940Z,0.64
2024-01-14T20:41:04.214Z,0.66
2024-01-14T20:43:31.371Z,0.59
2024-01-14T20:45:57.770Z,0.65
2024-01-14T20:48:24.298Z,0.66
2024-01-14T20:50:51.782Z,0.62
2024-01-14T20:53:19.534Z,0.68
2024-01-14T20:55:46.037Z,0.60
2024-01-14T20:58:14.438Z,0.68
2024-01-14T21:00:42.002Z,0.62
2024-01-14T21:03:08.775Z,0.66
2024-01-14T21:05:35.477Z,0.58
2024-01-14T21:08:05.260Z,0.64
2024-01-14T21:10:31.927Z,0.69
2024-01-14T21:12:58.881Z,0.58
2024-01-14T21:15:26.563Z,0.61
2024-01-14T21:17:53.012Z,0.66
2024-01-14T21:20:19.556Z,0.56
2024-01-14T21:22:46.002Z,0.58
2024-01-14T21:25:12.411Z,0.51
2024-01-14T21:27:38.926Z,0.45
2024-01-14T21:30:06.022Z,0.43
2024-01-14T21:32:33.700Z,0.40
2024-01-14T21:35:00.557Z,0.45
2024-01-14T21:37:27.289Z,0.46
2024-01-14T21:39:53.758Z,0.44
2024-01-14T21:42:21.031Z,0.52
2024-01-14T21:44:47.550Z,0.42
2024-01-14T21:47:13.958Z,0.44
2024-01-14T21:49:40.707Z,0.44
2024-01-14T21:52:08.239Z,0.41
2024-01-14T21:54:34.896Z,0.44
2024-01-14T21:57:01.442Z,0.40
2024-01-14T21:59:27.857Z,0.40
2024-01-14T22:01:55.220Z,0.48
2024-01-14T22:04:21.664Z,0.44
2024-01-14T22:06:48.211Z,0.41
2024-01-14T22:09:14.810Z,0.23
2024-01-14T22:11:41.597Z,0.26
2024-01-14T22:14:08.073Z,0.18
2024-01-14T22:16:35.066Z,0.16
2024-01-14T22:19:02.163Z,0.11
2024-01-14T22:21:33.313Z,0.08
2024-01-14T22:24:00.046Z,-0.03
2024-01-14T22:26:26.437Z,-0.03
2024-01-14T22:28:55.977Z,-0.03
2024-01-14T22:31:23.146Z,0.04
2024-01-14T22:33:49.858Z,-0.06
2024-01-14T22:36:18.021Z,-0.08
2024-01-14T22:38:45.317Z,-0.01
2024-01-14T22:41:13.018Z,-0.10
2024-01-14T22:43:40.764Z,0.05
2024-01-14T22:46:07.331Z,0.03
2024-01-14T22:48:34.099Z,-0.01
2024-01-14T22:51:02.878Z,0.02
2024-01-14T22:53:29.471Z,-0.01
2024-01-14T22:55:55.903Z,0.03
2024-01-14T22:58:22.451Z,-0.03
2024-01-14T23:00:49.006Z,0.07
2024-01-14T23:03:16.292Z,0.11
2024-01-14T23:05:42.980Z,0.14
2024-01-14T23:08:09.582Z,0.18
2024-01-14T23:10:36.158Z,0.16
2024-01-14T23:13:02.995Z,0.18
2024-01-14T23:15:29.487Z,0.21
2024-01-14T23:17:56.084Z,0.27
2024-01-14T23:20:22.547Z,0.24
2024-01-14T23:22:48.973Z,0.28
2024-01-14T23:25:15.412Z,0.28
2024-01-14T23:27:45.309Z,0.21
2024-01-14T23:30:13.332Z,0.26
2024-01-14T23:32:40.309Z,0.23
2024-01-14T23:35:07.601Z,0.26
2024-01-14T23:37:34.244Z,0.34
2024-01-14T23:40:01.025Z,0.24
2024-01-14T23:42:28.405Z,0.28
2024-01-14T23:44:54.854Z,0.34
2024-01-14T23:47:21.679Z,0.34
2024-01-14T23:49:48.288Z,0.38
2024-01-14T23:52:15.029Z,0.37
2024-01-14T23:54:41.817Z,0.42
2024-01-14T23:57:08.337Z,0.49
2024-01-14T23:59:34.763Z,0.51
